sensor_id;sensor_type;location;lat;lon;timestamp;temperature;humidity
2851;DHT22;1433;49.976;8.342;2024-03-07T00:00:06;5.20;59.00
2851;DHT22;1433;49.976;8.342;2024-03-07T00:02:46;5.20;99.90
2851;DHT22;1433;49.976;8.342;2024-03-07T00:05:14;5.20;99.90
2851;DHT22;1433;49.976;8.342;2024-03-07T00:07:41;5.10;99.90
2851;DHT22;1433;49.976;8.342;2024-03-07T00:10:08;5.10;99.90
2851;DHT22;1433;49.976;8.342;2024-03-07T00:12:36;5.10;99.90
2851;DHT22;1433;49.976;8.342;2024-03-07T00:15:05;5.20;99.90
2851;DHT22;1433;49.976;8.342;2024-03-07T00:17:32;5.20;99.90
2851;DHT22;1433;49.976;8.342;2024-03-07T00:19:58;5.30;99.90
2851;DHT22;1433;49.976;8.342;2024-03-07T00:22:24;5.10;99.90
2851;DHT22;1433;49.976;8.342;2024-03-07T00:24:53;5.00;99.90
2851;DHT22;1433;49.976;8.342;2024-03-07T00:27:19;5.00;99.90
2851;DHT22;1433;49.976;8.342;2024-03-07T00:29:47;4.90;99.90
2851;DHT22;1433;49.976;8.342;2024-03-07T00:32:22;4.90;99.90
2851;DHT22;1433;49.976;8.342;2024-03-07T00:34:49;4.90;99.90
2851;DHT22;1433;49.976;8.342;2024-03-07T00:37:16;4.80;99.90
2851;DHT22;1433;49.976;8.342;2024-03-07T00:39:42;4.70;99.90
2851;DHT22;1433;49.976;8.342;2024-03-07T00:42:09;4.70;99.90
2851;DHT22;1433;49.976;8.342;2024-03-07T00:44:34;4.60;99.90
2851;DHT22;1433;49.976;8.342;2024-03-07T00:47:01;4.60;99.90
2851;DHT22;1433;49.976;8.342;2024-03-07T00:49:28;4.50;99.90
2851;DHT22;1433;49.976;8.342;2024-03-07T00:51:54;4.50;99.90
2851;DHT22;1433;49.976;8.342;2024-03-07T00:54:20;4.40;99.90
2851;DHT22;1433;49.976;8.342;2024-03-07T00:56:46;4.40;99.90
2851;DHT22;1433;49.976;8.342;2024-03-07T00:59:15;4.30;99.90
2851;DHT22;1433;49.976;8.342;2024-03-07T01:01:42;4.30;99.90
2851;DHT22;1433;49.976;8.342;2024-03-07T01:04:08;4.30;99.90
2851;DHT22;1433;49.976;8.342;2024-03-07T01:06:35;4.30;99.90
2851;DHT22;1433;49.976;8.342;2024-03-07T01:09:02;4.30;99.90
2851;DHT22;1433;49.976;8.342;2024-03-07T01:11:28;4.30;99.90
2851;DHT22;1433;49.976;8.342;2024-03-07T01:13:55;4.30;99.90
2851;DHT22;1433;49.976;8.342;2024-03-07T01:16:21;4.30;99.90
2851;DHT22;1433;49.976;8.342;2024-03-07T01:18:48;4.50;99.90
2851;DHT22;1433;49.976;8.342;2024-03-07T01:21:15;4.30;99.90
2851;DHT22;1433;49.976;8.342;2024-03-07T01:23:41;4.30;99.90
2851;DHT22;1433;49.976;8.342;2024-03-07T01:26:07;4.30;99.90
2851;DHT22;1433;49.976;8.342;2024-03-07T01:28:34;4.30;99.90
2851;DHT22;1433;49.976;8.342;2024-03-07T01:31:00;4.30;99.90
2851;DHT22;1433;49.976;8.342;2024-03-07T01:33:26;4.20;99.90
2851;DHT22;1433;49.976;8.342;2024-03-07T01:35:53;4.20;99.90
2851;DHT22;1433;49.976;8.342;2024-03-07T01:38:18;4.10;99.90
2851;DHT22;1433;49.976;8.342;2024-03-07T01:40:47;4.10;99.90
2851;DHT22;1433;49.976;8.342;2024-03-07T01:43:12;4.10;99.90
2851;DHT22;1433;49.976;8.342;2024-03-07T01:45:38;4.00;99.90
2851;DHT22;1433;49.976;8.342;2024-03-07T01:48:05;3.90;99.90
2851;DHT22;1433;49.976;8.342;2024-03-07T01:50:32;3.90;99.90
2851;DHT22;1433;49.976;8.342;2024-03-07T01:52:59;4.00;99.90
2851;DHT22;1433;49.976;8.342;2024-03-07T01:55:27;3.80;99.90
2851;DHT22;1433;49.976;8.342;2024-03-07T01:57:56;3.80;99.90
2851;DHT22;1433;49.976;8.342;2024-03-07T02:00:25;3.80;99.90
2851;DHT22;1433;49.976;8.342;2024-03-07T02:02:52;3.80;99.90
2851;DHT22;1433;49.976;8.342;2024-03-07T02:05:22;3.80;99.90
2851;DHT22;1433;49.976;8.342;2024-03-07T02:07:47;3.80;99.90
2851;DHT22;1433;49.976;8.342;2024-03-07T02:10:13;3.70;99.90
2851;DHT22;1433;49.976;8.342;2024-03-07T02:12:40;3.70;99.90
2851;DHT22;1433;49.976;8.342;2024-03-07T02:15:06;3.70;99.90
2851;DHT22;1433;49.976;8.342;2024-03-07T02:17:34;3.60;99.90
2851;DHT22;1433;49.976;8.342;2024-03-07T02:20:01;3.50;99.90
2851;DHT22;1433;49.976;8.342;2024-03-07T02:22:29;3.40;99.90
2851;DHT22;1433;49.976;8.342;2024-03-07T02:24:56;3.50;99.90
2851;DHT22;1433;49.976;8.342;2024-03-07T02:27:22;3.60;99.90
2851;DHT22;1433;49.976;8.342;2024-03-07T02:29:48;3.40;99.90
2851;DHT22;1433;49.976;8.342;2024-03-07T02:32:14;3.40;99.90
2851;DHT22;1433;49.976;8.342;2024-03-07T02:34:40;3.40;99.90
2851;DHT22;1433;49.976;8.342;2024-03-07T02:37:06;3.50;99.90
2851;DHT22;1433;49.976;8.342;2024-03-07T02:39:35;3.40;99.90
2851;DHT22;1433;49.976;8.342;2024-03-07T02:42:02;3.40;99.90
2851;DHT22;1433;49.976;8.342;2024-03-07T02:44:28;3.40;99.90
2851;DHT22;1433;49.976;8.342;2024-03-07T02:46:54;3.30;99.90
2851;DHT22;1433;49.976;8.342;2024-03-07T02:49:20;3.40;99.90
2851;DHT22;1433;49.976;8.342;2024-03-07T02:51:47;3.40;99.90
2851;DHT22;1433;49.976;8.342;2024-03-07T02:54:13;3.40;99.90
2851;DHT22;1433;49.976;8.342;2024-03-07T02:56:39;3.30;99.90
2851;DHT22;1433;49.976;8.342;2024-03-07T02:59:05;3.40;99.90
2851;DHT22;1433;49.976;8.342;2024-03-07T03:01:32;3.30;99.90
2851;DHT22;1433;49.976;8.342;2024-03-07T03:03:58;3.30;99.90
2851;DHT22;1433;49.976;8.342;2024-03-07T03:06:24;3.30;99.90
2851;DHT22;1433;49.976;8.342;2024-03-07T03:08:50;3.30;99.90
2851;DHT22;1433;49.976;8.342;2024-03-07T03:11:16;3.20;99.90
2851;DHT22;1433;49.976;8.342;2024-03-07T03:13:42;3.20;99.90
2851;DHT22;1433;49.976;8.342;2024-03-07T03:16:09;3.20;99.90
2851;DHT22;1433;49.976;8.342;2024-03-07T03:18:35;3.20;99.90
2851;DHT22;1433;49.976;8.342;2024-03-07T03:21:02;3.10;99.90
2851;DHT22;1433;49.976;8.342;2024-03-07T03:23:28;3.10;99.90
2851;DHT22;1433;49.976;8.342;2024-03-07T03:26:00;3.00;99.90
2851;DHT22;1433;49.976;8.342;2024-03-07T03:28:26;3.20;99.90
2851;DHT22;1433;49.976;8.342;2024-03-07T03:30:52;3.00;99.90
2851;DHT22;1433;49.976;8.342;2024-03-07T03:33:18;3.00;99.90
2851;DHT22;1433;49.976;8.342;2024-03-07T03:35:46;2.90;99.90
2851;DHT22;1433;49.976;8.342;2024-03-07T03:38:12;3.00;99.90
2851;DHT22;1433;49.976;8.342;2024-03-07T03:40:38;3.00;99.90
2851;DHT22;1433;49.976;8.342;2024-03-07T03:43:04;2.90;99.90
2851;DHT22;1433;49.976;8.342;2024-03-07T03:45:31;2.90;99.90
2851;DHT22;1433;49.976;8.342;2024-03-07T03:48:00;2.90;99.90
2851;DHT22;1433;49.976;8.342;2024-03-07T03:50:26;2.80;99.90
2851;DHT22;1433;49.976;8.342;2024-03-07T03:52:52;2.80;99.90
2851;DHT22;1433;49.976;8.342;2024-03-07T03:55:18;2.80;99.90
2851;DHT22;1433;49.976;8.342;2024-03-07T03:57:44;2.70;99.90
2851;DHT22;1433;49.976;8.342;2024-03-07T04:00:12;2.70;99.90
2851;DHT22;1433;49.976;8.342;2024-03-07T04:02:40;2.80;99.90
2851;DHT22;1433;49.976;8.342;2024-03-07T04:05:16;2.70;99.90
2851;DHT22;1433;49.976;8.342;2024-03-07T04:07:43;2.70;99.90
2851;DHT22;1433;49.976;8.342;2024-03-07T04:10:10;2.70;99.90
2851;DHT22;1433;49.976;8.342;2024-03-07T04:12:37;2.60;99.90
2851;DHT22;1433;49.976;8.342;2024-03-07T04:15:13;2.70;99.90
2851;DHT22;1433;49.976;8.342;2024-03-07T04:17:42;2.60;99.90
2851;DHT22;1433;49.976;8.342;2024-03-07T04:20:09;2.60;99.90
2851;DHT22;1433;49.976;8.342;2024-03-07T04:22:36;2.70;99.90
2851;DHT22;1433;49.976;8.342;2024-03-07T04:25:06;2.70;99.90
2851;DHT22;1433;49.976;8.342;2024-03-07T04:27:33;2.70;99.90
2851;DHT22;1433;49.976;8.342;2024-03-07T04:30:03;2.80;99.90
2851;DHT22;1433;49.976;8.342;2024-03-07T04:32:30;2.80;99.90
2851;DHT22;1433;49.976;8.342;2024-03-07T04:34:56;2.80;99.90
2851;DHT22;1433;49.976;8.342;2024-03-07T04:37:26;2.90;99.90
2851;DHT22;1433;49.976;8.342;2024-03-07T04:39:54;2.90;99.90
2851;DHT22;1433;49.976;8.342;2024-03-07T04:42:21;2.90;99.90
2851;DHT22;1433;49.976;8.342;2024-03-07T04:44:47;2.90;99.90
2851;DHT22;1433;49.976;8.342;2024-03-07T04:47:12;2.80;99.90
2851;DHT22;1433;49.976;8.342;2024-03-07T04:49:38;2.80;99.90
2851;DHT22;1433;49.976;8.342;2024-03-07T04:52:06;2.80;99.90
2851;DHT22;1433;49.976;8.342;2024-03-07T04:54:32;2.70;99.90
2851;DHT22;1433;49.976;8.342;2024-03-07T04:56:59;2.60;99.90
2851;DHT22;1433;49.976;8.342;2024-03-07T04:59:25;2.60;99.90
2851;DHT22;1433;49.976;8.342;2024-03-07T05:01:51;2.60;99.90
2851;DHT22;1433;49.976;8.342;2024-03-07T05:04:17;2.60;99.90
2851;DHT22;1433;49.976;8.342;2024-03-07T05:06:44;2.60;99.90
2851;DHT22;1433;49.976;8.342;2024-03-07T05:09:13;2.60;99.90
2851;DHT22;1433;49.976;8.342;2024-03-07T05:11:49;2.60;99.90
2851;DHT22;1433;49.976;8.342;2024-03-07T05:14:18;2.60;99.90
2851;DHT22;1433;49.976;8.342;2024-03-07T05:16:44;2.60;99.90
2851;DHT22;1433;49.976;8.342;2024-03-07T05:19:10;2.60;99.90
2851;DHT22;1433;49.976;8.342;2024-03-07T05:21:36;2.60;99.90
2851;DHT22;1433;49.976;8.342;2024-03-07T05:24:07;2.60;99.90
2851;DHT22;1433;49.976;8.342;2024-03-07T05:26:34;2.60;99.90
2851;DHT22;1433;49.976;8.342;2024-03-07T05:29:05;2.60;99.90
2851;DHT22;1433;49.976;8.342;2024-03-07T05:31:34;2.60;99.90
2851;DHT22;1433;49.976;8.342;2024-03-07T05:34:02;2.60;99.90
2851;DHT22;1433;49.976;8.342;2024-03-07T05:36:35;2.60;99.90
2851;DHT22;1433;49.976;8.342;2024-03-07T05:39:02;2.60;99.90
2851;DHT22;1433;49.976;8.342;2024-03-07T05:41:40;2.60;99.90
2851;DHT22;1433;49.976;8.342;2024-03-07T05:44:06;2.60;99.90
2851;DHT22;1433;49.976;8.342;2024-03-07T05:46:39;2.60;99.90
2851;DHT22;1433;49.976;8.342;2024-03-07T05:49:15;2.60;99.90
2851;DHT22;1433;49.976;8.342;2024-03-07T05:51:42;2.60;99.90
2851;DHT22;1433;49.976;8.342;2024-03-07T05:54:13;2.50;99.90
2851;DHT22;1433;49.976;8.342;2024-03-07T05:56:40;2.50;99.90
2851;DHT22;1433;49.976;8.342;2024-03-07T05:59:06;2.50;99.90
2851;DHT22;1433;49.976;8.342;2024-03-07T06:01:33;2.50;99.90
2851;DHT22;1433;49.976;8.342;2024-03-07T06:04:00;2.50;99.90
2851;DHT22;1433;49.976;8.342;2024-03-07T06:06:27;2.50;99.90
2851;DHT22;1433;49.976;8.342;2024-03-07T06:08:53;2.60;99.90
2851;DHT22;1433;49.976;8.342;2024-03-07T06:11:19;2.60;99.90
2851;DHT22;1433;49.976;8.342;2024-03-07T06:13:50;2.50;99.90
2851;DHT22;1433;49.976;8.342;2024-03-07T06:16:16;2.50;99.90
2851;DHT22;1433;49.976;8.342;2024-03-07T06:18:43;2.50;99.90
2851;DHT22;1433;49.976;8.342;2024-03-07T06:21:11;2.50;99.90
2851;DHT22;1433;49.976;8.342;2024-03-07T06:23:39;2.50;99.90
2851;DHT22;1433;49.976;8.342;2024-03-07T06:26:04;2.50;99.90
2851;DHT22;1433;49.976;8.342;2024-03-07T06:28:39;2.50;99.90
2851;DHT22;1433;49.976;8.342;2024-03-07T06:31:05;2.50;99.90
2851;DHT22;1433;49.976;8.342;2024-03-07T06:33:33;2.70;99.90
2851;DHT22;1433;49.976;8.342;2024-03-07T06:36:00;2.50;99.90
2851;DHT22;1433;49.976;8.342;2024-03-07T06:38:27;2.60;99.90
2851;DHT22;1433;49.976;8.342;2024-03-07T06:40:52;2.60;99.90
2851;DHT22;1433;49.976;8.342;2024-03-07T06:43:18;2.40;99.90
2851;DHT22;1433;49.976;8.342;2024-03-07T06:45:44;2.70;99.90
2851;DHT22;1433;49.976;8.342;2024-03-07T06:48:11;2.70;99.90
2851;DHT22;1433;49.976;8.342;2024-03-07T06:50:40;2.80;99.90
2851;DHT22;1433;49.976;8.342;2024-03-07T06:53:06;2.80;99.90
2851;DHT22;1433;49.976;8.342;2024-03-07T06:55:32;2.90;99.90
2851;DHT22;1433;49.976;8.342;2024-03-07T06:58:01;2.90;99.90
2851;DHT22;1433;49.976;8.342;2024-03-07T07:00:30;2.90;99.90
2851;DHT22;1433;49.976;8.342;2024-03-07T07:02:57;2.90;99.90
2851;DHT22;1433;49.976;8.342;2024-03-07T07:05:23;2.90;99.90
2851;DHT22;1433;49.976;8.342;2024-03-07T07:07:49;3.10;99.90
2851;DHT22;1433;49.976;8.342;2024-03-07T07:10:16;3.00;99.90
2851;DHT22;1433;49.976;8.342;2024-03-07T07:12:49;3.20;99.90
2851;DHT22;1433;49.976;8.342;2024-03-07T07:15:16;3.30;99.90
2851;DHT22;1433;49.976;8.342;2024-03-07T07:17:47;3.50;99.90
2851;DHT22;1433;49.976;8.342;2024-03-07T07:20:17;3.80;99.90
2851;DHT22;1433;49.976;8.342;2024-03-07T07:22:43;3.80;99.90
2851;DHT22;1433;49.976;8.342;2024-03-07T07:25:12;3.90;99.90
2851;DHT22;1433;49.976;8.342;2024-03-07T07:27:51;4.20;99.90
2851;DHT22;1433;49.976;8.342;2024-03-07T07:30:19;4.10;99.90
2851;DHT22;1433;49.976;8.342;2024-03-07T07:32:50;4.20;99.90
2851;DHT22;1433;49.976;8.342;2024-03-07T07:35:17;4.30;99.90
2851;DHT22;1433;49.976;8.342;2024-03-07T07:37:50;4.50;96.10
2851;DHT22;1433;49.976;8.342;2024-03-07T07:40:20;4.50;26.90
2851;DHT22;1433;49.976;8.342;2024-03-07T07:42:49;4.60;1.00
2851;DHT22;1433;49.976;8.342;2024-03-07T07:45:17;4.90;1.00
2851;DHT22;1433;49.976;8.342;2024-03-07T07:47:45;4.70;1.00
2851;DHT22;1433;49.976;8.342;2024-03-07T07:50:16;4.70;1.00
2851;DHT22;1433;49.976;8.342;2024-03-07T07:52:49;4.70;1.00
2851;DHT22;1433;49.976;8.342;2024-03-07T07:55:26;4.80;1.00
2851;DHT22;1433;49.976;8.342;2024-03-07T07:57:55;4.90;1.00
2851;DHT22;1433;49.976;8.342;2024-03-07T08:00:28;5.10;1.00
2851;DHT22;1433;49.976;8.342;2024-03-07T08:03:06;5.20;1.00
2851;DHT22;1433;49.976;8.342;2024-03-07T08:05:36;5.30;1.00
2851;DHT22;1433;49.976;8.342;2024-03-07T08:08:09;5.40;99.90
2851;DHT22;1433;49.976;8.342;2024-03-07T08:10:38;5.50;99.90
2851;DHT22;1433;49.976;8.342;2024-03-07T08:13:05;5.60;99.90
2851;DHT22;1433;49.976;8.342;2024-03-07T08:15:35;5.70;69.60
2851;DHT22;1433;49.976;8.342;2024-03-07T08:18:01;5.90;99.90
2851;DHT22;1433;49.976;8.342;2024-03-07T08:20:34;5.90;1.00
2851;DHT22;1433;49.976;8.342;2024-03-07T08:23:00;6.00;1.00
2851;DHT22;1433;49.976;8.342;2024-03-07T08:25:28;6.00;99.90
2851;DHT22;1433;49.976;8.342;2024-03-07T08:27:57;6.00;1.00
2851;DHT22;1433;49.976;8.342;2024-03-07T08:30:24;6.00;99.90
2851;DHT22;1433;49.976;8.342;2024-03-07T08:32:52;6.10;1.00
2851;DHT22;1433;49.976;8.342;2024-03-07T08:35:19;6.20;23.20
2851;DHT22;1433;49.976;8.342;2024-03-07T08:37:47;6.10;1.00
2851;DHT22;1433;49.976;8.342;2024-03-07T08:40:19;6.10;1.00
2851;DHT22;1433;49.976;8.342;2024-03-07T08:42:53;6.10;1.00
2851;DHT22;1433;49.976;8.342;2024-03-07T08:45:23;6.20;1.00
2851;DHT22;1433;49.976;8.342;2024-03-07T08:47:50;6.30;1.00
2851;DHT22;1433;49.976;8.342;2024-03-07T08:50:17;6.40;1.00
2851;DHT22;1433;49.976;8.342;2024-03-07T08:52:44;6.50;1.00
2851;DHT22;1433;49.976;8.342;2024-03-07T08:55:16;6.60;99.90
2851;DHT22;1433;49.976;8.342;2024-03-07T08:57:43;6.60;99.90
2851;DHT22;1433;49.976;8.342;2024-03-07T09:00:12;6.80;1.00
2851;DHT22;1433;49.976;8.342;2024-03-07T09:02:49;7.00;1.00
2851;DHT22;1433;49.976;8.342;2024-03-07T09:05:19;7.10;1.00
2851;DHT22;1433;49.976;8.342;2024-03-07T09:07:46;7.20;1.00
2851;DHT22;1433;49.976;8.342;2024-03-07T09:10:13;7.20;99.90
2851;DHT22;1433;49.976;8.342;2024-03-07T09:12:40;7.40;1.00
2851;DHT22;1433;49.976;8.342;2024-03-07T09:15:07;7.60;99.90
2851;DHT22;1433;49.976;8.342;2024-03-07T09:17:36;7.80;54.00
2851;DHT22;1433;49.976;8.342;2024-03-07T09:20:03;7.80;1.00
2851;DHT22;1433;49.976;8.342;2024-03-07T09:22:31;8.10;99.90
2851;DHT22;1433;49.976;8.342;2024-03-07T09:24:58;8.10;1.00
2851;DHT22;1433;49.976;8.342;2024-03-07T09:27:25;8.20;9.60
2851;DHT22;1433;49.976;8.342;2024-03-07T09:29:50;8.40;1.00
2851;DHT22;1433;49.976;8.342;2024-03-07T09:32:17;8.50;1.00
2851;DHT22;1433;49.976;8.342;2024-03-07T09:34:43;8.70;1.00
2851;DHT22;1433;49.976;8.342;2024-03-07T09:37:09;8.80;1.00
2851;DHT22;1433;49.976;8.342;2024-03-07T09:39:35;8.90;1.00
2851;DHT22;1433;49.976;8.342;2024-03-07T09:42:12;8.90;1.00
2851;DHT22;1433;49.976;8.342;2024-03-07T09:44:41;8.80;1.00
2851;DHT22;1433;49.976;8.342;2024-03-07T09:47:07;9.00;1.00
2851;DHT22;1433;49.976;8.342;2024-03-07T09:49:33;9.20;1.00
2851;DHT22;1433;49.976;8.342;2024-03-07T09:52:06;9.40;1.00
2851;DHT22;1433;49.976;8.342;2024-03-07T09:54:40;9.60;1.00
2851;DHT22;1433;49.976;8.342;2024-03-07T09:57:07;9.70;1.00
2851;DHT22;1433;49.976;8.342;2024-03-07T09:59:35;9.80;1.00
2851;DHT22;1433;49.976;8.342;2024-03-07T10:02:05;10.00;1.00
2851;DHT22;1433;49.976;8.342;2024-03-07T10:04:46;10.20;1.00
2851;DHT22;1433;49.976;8.342;2024-03-07T10:07:18;10.00;1.00
2851;DHT22;1433;49.976;8.342;2024-03-07T10:09:44;10.30;1.00
2851;DHT22;1433;49.976;8.342;2024-03-07T10:12:11;10.50;1.00
2851;DHT22;1433;49.976;8.342;2024-03-07T10:14:50;10.50;1.00
2851;DHT22;1433;49.976;8.342;2024-03-07T10:17:19;10.50;1.00
2851;DHT22;1433;49.976;8.342;2024-03-07T10:19:49;10.20;1.00
2851;DHT22;1433;49.976;8.342;2024-03-07T10:22:16;9.80;1.00
2851;DHT22;1433;49.976;8.342;2024-03-07T10:24:51;9.70;1.00
2851;DHT22;1433;49.976;8.342;2024-03-07T10:27:20;10.40;1.00
2851;DHT22;1433;49.976;8.342;2024-03-07T10:29:52;11.30;1.00
2851;DHT22;1433;49.976;8.342;2024-03-07T10:32:22;11.70;1.00
2851;DHT22;1433;49.976;8.342;2024-03-07T10:34:51;11.30;1.00
2851;DHT22;1433;49.976;8.342;2024-03-07T10:37:18;11.30;1.00
2851;DHT22;1433;49.976;8.342;2024-03-07T10:39:49;11.10;1.00
2851;DHT22;1433;49.976;8.342;2024-03-07T10:42:16;10.90;1.00
2851;DHT22;1433;49.976;8.342;2024-03-07T10:44:45;11.10;1.00
2851;DHT22;1433;49.976;8.342;2024-03-07T10:47:20;11.30;1.00
2851;DHT22;1433;49.976;8.342;2024-03-07T10:50:17;11.50;1.00
2851;DHT22;1433;49.976;8.342;2024-03-07T10:52:54;12.50;1.00
2851;DHT22;1433;49.976;8.342;2024-03-07T10:58:33;12.80;1.00
2851;DHT22;1433;49.976;8.342;2024-03-07T11:01:10;13.00;1.00
2851;DHT22;1433;49.976;8.342;2024-03-07T11:03:39;13.10;1.00
2851;DHT22;1433;49.976;8.342;2024-03-07T11:06:07;13.10;1.00
2851;DHT22;1433;49.976;8.342;2024-03-07T11:08:37;13.30;1.00
2851;DHT22;1433;49.976;8.342;2024-03-07T11:11:04;13.30;1.00
2851;DHT22;1433;49.976;8.342;2024-03-07T11:13:30;13.30;1.00
2851;DHT22;1433;49.976;8.342;2024-03-07T11:15:58;13.60;1.00
2851;DHT22;1433;49.976;8.342;2024-03-07T11:18:26;13.70;1.00
2851;DHT22;1433;49.976;8.342;2024-03-07T11:20:54;13.80;1.00
2851;DHT22;1433;49.976;8.342;2024-03-07T11:23:33;13.80;1.00
2851;DHT22;1433;49.976;8.342;2024-03-07T11:26:06;13.50;1.00
2851;DHT22;1433;49.976;8.342;2024-03-07T11:28:38;13.50;1.00
2851;DHT22;1433;49.976;8.342;2024-03-07T11:34:15;13.10;1.00
2851;DHT22;1433;49.976;8.342;2024-03-07T11:36:48;13.40;1.00
2851;DHT22;1433;49.976;8.342;2024-03-07T11:39:43;12.80;1.00
2851;DHT22;1433;49.976;8.342;2024-03-07T11:42:27;12.10;1.00
2851;DHT22;1433;49.976;8.342;2024-03-07T11:44:59;12.20;1.00
2851;DHT22;1433;49.976;8.342;2024-03-07T11:47:27;13.10;1.00
2851;DHT22;1433;49.976;8.342;2024-03-07T11:50:01;12.90;1.00
2851;DHT22;1433;49.976;8.342;2024-03-07T11:52:28;13.90;1.00
2851;DHT22;1433;49.976;8.342;2024-03-07T11:54:54;14.30;1.00
2851;DHT22;1433;49.976;8.342;2024-03-07T11:57:46;14.30;1.00
2851;DHT22;1433;49.976;8.342;2024-03-07T12:00:14;15.10;20.60
2851;DHT22;1433;49.976;8.342;2024-03-07T12:02:40;15.50;31.90
2851;DHT22;1433;49.976;8.342;2024-03-07T12:05:08;15.50;30.60
2851;DHT22;1433;49.976;8.342;2024-03-07T12:07:35;15.70;52.50
2851;DHT22;1433;49.976;8.342;2024-03-07T12:10:04;15.80;36.30
2851;DHT22;1433;49.976;8.342;2024-03-07T12:12:31;16.00;98.00
2851;DHT22;1433;49.976;8.342;2024-03-07T12:14:58;15.80;30.00
2851;DHT22;1433;49.976;8.342;2024-03-07T12:17:25;15.30;79.10
2851;DHT22;1433;49.976;8.342;2024-03-07T12:19:51;15.70;62.30
2851;DHT22;1433;49.976;8.342;2024-03-07T12:22:21;14.70;1.00
2851;DHT22;1433;49.976;8.342;2024-03-07T12:25:10;15.30;1.00
2851;DHT22;1433;49.976;8.342;2024-03-07T12:27:36;15.40;1.00
2851;DHT22;1433;49.976;8.342;2024-03-07T12:30:15;15.80;21.60
2851;DHT22;1433;49.976;8.342;2024-03-07T12:32:49;15.90;30.00
2851;DHT22;1433;49.976;8.342;2024-03-07T12:35:18;16.10;73.20
2851;DHT22;1433;49.976;8.342;2024-03-07T12:37:44;16.20;96.90
2851;DHT22;1433;49.976;8.342;2024-03-07T12:40:14;14.90;19.30
2851;DHT22;1433;49.976;8.342;2024-03-07T12:42:50;14.30;1.00
2851;DHT22;1433;49.976;8.342;2024-03-07T12:45:19;14.20;1.00
2851;DHT22;1433;49.976;8.342;2024-03-07T12:47:48;13.80;1.00
2851;DHT22;1433;49.976;8.342;2024-03-07T12:50:18;14.00;1.00
2851;DHT22;1433;49.976;8.342;2024-03-07T12:52:48;13.60;1.00
2851;DHT22;1433;49.976;8.342;2024-03-07T12:55:18;13.30;1.00
2851;DHT22;1433;49.976;8.342;2024-03-07T12:57:47;12.70;1.00
2851;DHT22;1433;49.976;8.342;2024-03-07T13:00:16;12.50;1.00
2851;DHT22;1433;49.976;8.342;2024-03-07T13:02:49;12.40;1.00
2851;DHT22;1433;49.976;8.342;2024-03-07T13:05:15;12.30;1.00
2851;DHT22;1433;49.976;8.342;2024-03-07T13:07:47;12.20;1.00
2851;DHT22;1433;49.976;8.342;2024-03-07T13:10:15;12.00;1.00
2851;DHT22;1433;49.976;8.342;2024-03-07T13:12:42;12.30;1.00
2851;DHT22;1433;49.976;8.342;2024-03-07T13:15:11;12.50;1.00
2851;DHT22;1433;49.976;8.342;2024-03-07T13:17:38;12.60;1.00
2851;DHT22;1433;49.976;8.342;2024-03-07T13:20:05;12.40;1.00
2851;DHT22;1433;49.976;8.342;2024-03-07T13:22:45;12.50;1.00
2851;DHT22;1433;49.976;8.342;2024-03-07T13:25:24;12.70;1.00
2851;DHT22;1433;49.976;8.342;2024-03-07T13:28:04;12.50;1.00
2851;DHT22;1433;49.976;8.342;2024-03-07T13:30:34;12.60;1.00
2851;DHT22;1433;49.976;8.342;2024-03-07T13:33:02;12.50;1.00
2851;DHT22;1433;49.976;8.342;2024-03-07T13:35:29;12.60;1.00
2851;DHT22;1433;49.976;8.342;2024-03-07T13:37:56;12.70;1.00
2851;DHT22;1433;49.976;8.342;2024-03-07T13:40:24;12.80;1.00
2851;DHT22;1433;49.976;8.342;2024-03-07T13:42:54;12.80;1.00
2851;DHT22;1433;49.976;8.342;2024-03-07T13:45:23;12.70;1.00
2851;DHT22;1433;49.976;8.342;2024-03-07T13:47:53;12.70;1.00
2851;DHT22;1433;49.976;8.342;2024-03-07T13:50:22;13.20;1.00
2851;DHT22;1433;49.976;8.342;2024-03-07T13:52:51;13.40;1.00
2851;DHT22;1433;49.976;8.342;2024-03-07T14:08:19;13.00;1.00
2851;DHT22;1433;49.976;8.342;2024-03-07T14:18:04;12.50;1.00
2851;DHT22;1433;49.976;8.342;2024-03-07T14:32:50;12.20;1.00
2851;DHT22;1433;49.976;8.342;2024-03-07T14:35:24;11.80;1.00
2851;DHT22;1433;49.976;8.342;2024-03-07T14:41:18;11.50;1.00
2851;DHT22;1433;49.976;8.342;2024-03-07T14:43:48;11.40;1.00
2851;DHT22;1433;49.976;8.342;2024-03-07T14:46:15;11.30;1.00
2851;DHT22;1433;49.976;8.342;2024-03-07T14:48:42;11.30;1.00
2851;DHT22;1433;49.976;8.342;2024-03-07T14:51:10;11.30;1.00
2851;DHT22;1433;49.976;8.342;2024-03-07T14:53:40;11.20;1.00
2851;DHT22;1433;49.976;8.342;2024-03-07T14:56:08;11.20;1.00
2851;DHT22;1433;49.976;8.342;2024-03-07T14:58:35;11.10;1.00
2851;DHT22;1433;49.976;8.342;2024-03-07T15:01:01;11.00;1.00
2851;DHT22;1433;49.976;8.342;2024-03-07T15:03:27;10.90;1.00
2851;DHT22;1433;49.976;8.342;2024-03-07T15:05:56;11.00;1.00
2851;DHT22;1433;49.976;8.342;2024-03-07T15:08:21;11.00;1.00
2851;DHT22;1433;49.976;8.342;2024-03-07T15:10:56;10.90;1.00
2851;DHT22;1433;49.976;8.342;2024-03-07T15:13:25;10.80;1.00
2851;DHT22;1433;49.976;8.342;2024-03-07T15:15:50;10.90;1.00
2851;DHT22;1433;49.976;8.342;2024-03-07T15:18:16;10.70;1.00
2851;DHT22;1433;49.976;8.342;2024-03-07T15:20:42;10.70;1.00
2851;DHT22;1433;49.976;8.342;2024-03-07T15:23:08;10.90;1.00
2851;DHT22;1433;49.976;8.342;2024-03-07T15:25:34;10.70;1.00
2851;DHT22;1433;49.976;8.342;2024-03-07T15:28:02;10.60;1.00
2851;DHT22;1433;49.976;8.342;2024-03-07T15:30:29;10.50;1.00
2851;DHT22;1433;49.976;8.342;2024-03-07T15:33:01;10.40;1.00
2851;DHT22;1433;49.976;8.342;2024-03-07T15:35:30;10.30;1.00
2851;DHT22;1433;49.976;8.342;2024-03-07T15:37:56;10.20;1.00
2851;DHT22;1433;49.976;8.342;2024-03-07T15:40:23;10.10;1.00
2851;DHT22;1433;49.976;8.342;2024-03-07T15:42:55;10.00;1.00
2851;DHT22;1433;49.976;8.342;2024-03-07T15:45:23;9.90;1.00
2851;DHT22;1433;49.976;8.342;2024-03-07T15:47:55;9.90;1.00
2851;DHT22;1433;49.976;8.342;2024-03-07T15:50:25;9.80;1.00
2851;DHT22;1433;49.976;8.342;2024-03-07T15:53:02;9.80;1.00
2851;DHT22;1433;49.976;8.342;2024-03-07T15:55:30;9.80;1.00
2851;DHT22;1433;49.976;8.342;2024-03-07T15:58:00;9.70;1.00
2851;DHT22;1433;49.976;8.342;2024-03-07T16:00:30;9.70;1.00
2851;DHT22;1433;49.976;8.342;2024-03-07T16:03:00;9.70;1.00
2851;DHT22;1433;49.976;8.342;2024-03-07T16:05:30;9.70;1.00
2851;DHT22;1433;49.976;8.342;2024-03-07T16:07:58;9.70;1.00
2851;DHT22;1433;49.976;8.342;2024-03-07T16:10:29;9.70;1.00
2851;DHT22;1433;49.976;8.342;2024-03-07T16:12:59;9.70;1.00
2851;DHT22;1433;49.976;8.342;2024-03-07T16:15:27;9.60;1.00
2851;DHT22;1433;49.976;8.342;2024-03-07T16:17:54;9.60;1.00
2851;DHT22;1433;49.976;8.342;2024-03-07T16:20:22;9.50;1.00
2851;DHT22;1433;49.976;8.342;2024-03-07T16:22:48;9.50;1.00
2851;DHT22;1433;49.976;8.342;2024-03-07T16:25:15;9.40;1.00
2851;DHT22;1433;49.976;8.342;2024-03-07T16:27:43;9.40;1.00
2851;DHT22;1433;49.976;8.342;2024-03-07T16:30:10;9.40;1.00
2851;DHT22;1433;49.976;8.342;2024-03-07T16:32:39;9.40;1.00
2851;DHT22;1433;49.976;8.342;2024-03-07T16:35:07;9.30;1.00
2851;DHT22;1433;49.976;8.342;2024-03-07T16:37:42;9.30;1.00
2851;DHT22;1433;49.976;8.342;2024-03-07T16:40:10;9.30;1.00
2851;DHT22;1433;49.976;8.342;2024-03-07T16:42:46;9.20;1.00
2851;DHT22;1433;49.976;8.342;2024-03-07T16:45:25;9.20;1.00
2851;DHT22;1433;49.976;8.342;2024-03-07T16:47:53;9.20;1.00
2851;DHT22;1433;49.976;8.342;2024-03-07T16:50:24;9.20;1.00
2851;DHT22;1433;49.976;8.342;2024-03-07T16:52:56;9.20;1.00
2851;DHT22;1433;49.976;8.342;2024-03-07T16:55:36;9.20;1.00
2851;DHT22;1433;49.976;8.342;2024-03-07T16:58:05;9.20;1.00
2851;DHT22;1433;49.976;8.342;2024-03-07T17:00:37;9.20;1.00
2851;DHT22;1433;49.976;8.342;2024-03-07T17:03:05;9.10;1.00
2851;DHT22;1433;49.976;8.342;2024-03-07T17:05:34;9.10;1.00
2851;DHT22;1433;49.976;8.342;2024-03-07T17:08:05;9.10;1.00
2851;DHT22;1433;49.976;8.342;2024-03-07T17:10:33;9.00;1.00